Adriana — SXGS — position and weather

sailwx.info

Track history (hours):
 
Tides and Currents Weather Stations Pressure Air Temp Water Temp Dewpoint Dewpoint Depression Visibility Wind Speed Wind Dir Waves Ship Positions

Adriana

Last reported at 2017-Oct-16 20:36 UTC. Time now 2017-Oct-17 01:08 UTC.
Position N 37°58' E 023°35'.

Length 89 m; draft 7.8 m.

Type: Ship. MMSI: 240666000.

Date/timePositionNaut miles runAvg speedWind from/ knotsBaromVisibWave heightAir tempDewpointWater temp
2017-Oct-16 20:36N 37°58' E 023°35'0 0.1
2017-Oct-16 20:30N 37°58' E 023°35'3 6.1
2017-Oct-16 20:01N 37°55' E 023°34'4 8.0
2017-Oct-16 19:30N 37°51' E 023°32'0 0.1
2017-Oct-16 19:00N 37°51' E 023°32'0 0.0
2017-Oct-16 18:30N 37°51' E 023°32'0 0.1
2017-Oct-16 18:01N 37°51' E 023°32'0 0.0
2017-Oct-16 17:30N 37°51' E 023°32'0 0.0
2017-Oct-16 17:00N 37°51' E 023°32'0 0.0
2017-Oct-16 16:31N 37°51' E 023°32'0 0.1
2017-Oct-16 16:01N 37°51' E 023°32'1 1.3
2017-Oct-16 15:31N 37°52' E 023°32'1 2.5
2017-Oct-16 15:00N 37°53' E 023°33'2 4.8
2017-Oct-16 14:31N 37°55' E 023°34'3 2.9
2017-Oct-16 13:31N 37°57' E 023°36'0 0.0
2017-Oct-16 13:00N 37°57' E 023°36'0 0.0
2017-Oct-16 12:31N 37°57' E 023°36'0 0.0
2017-Oct-16 12:01N 37°57' E 023°36'0 0.4
2017-Oct-16 11:30N 37°57' E 023°36'1 2.2
2017-Oct-16 11:00N 37°58' E 023°35'0 0.1
2017-Oct-16 10:30N 37°58' E 023°35'0 0.0
2017-Oct-16 10:00N 37°58' E 023°35'0 0.0
2017-Oct-16 09:31N 37°58' E 023°35'0 0.0
2017-Oct-15 13:54N 37°58' E 023°35'0 0.7
2017-Oct-15 13:30N 37°57' E 023°35'4 7.9
2017-Oct-15 13:00N 37°54' E 023°33'1 1.3
2017-Oct-15 12:30N 37°53' E 023°33'0 0.0
2017-Oct-15 12:00N 37°53' E 023°33'0 0.0
2017-Oct-15 11:30N 37°53' E 023°33'0 0.0
2017-Oct-15 11:00N 37°53' E 023°33'0 0.1
2017-Oct-15 10:30N 37°53' E 023°33'0 0.1
2017-Oct-15 10:00N 37°53' E 023°33'0 0.0
2017-Oct-15 09:30N 37°53' E 023°33'0 0.1
2017-Oct-15 09:00N 37°53' E 023°33'0 0.1
2017-Oct-15 08:30N 37°53' E 023°33'0 0.4
2017-Oct-15 08:00N 37°53' E 023°33'3 6.4
2017-Oct-15 07:30N 37°56' E 023°34'2 4.0
2017-Oct-15 07:00N 37°57' E 023°36'0 0.0
2017-Oct-15 06:30N 37°57' E 023°36'0 0.0
2017-Oct-15 06:00N 37°57' E 023°36'0 0.0
2017-Oct-15 05:30N 37°57' E 023°36'0 0.0
2017-Oct-15 05:00N 37°57' E 023°36'0 0.0
2017-Oct-15 04:30N 37°57' E 023°36'0 0.0
2017-Oct-15 04:00N 37°57' E 023°36'0 0.0
2017-Oct-15 03:30N 37°57' E 023°36'0 0.0
2017-Oct-15 03:00N 37°57' E 023°36'0 0.0
2017-Oct-15 02:30N 37°57' E 023°36'1 2.2
2017-Oct-15 02:00N 37°57' E 023°35'0 0.3
2017-Oct-15 01:30N 37°58' E 023°35'0 0.0
2017-Oct-14 10:47N 37°58' E 023°35'0 1.0
2017-Oct-14 10:30N 37°57' E 023°34'3 5.9
2017-Oct-14 10:00N 38°00' E 023°33'2 4.7
2017-Oct-14 09:30N 38°02' E 023°36'0 0.1
2017-Oct-14 09:00N 38°02' E 023°36'0 0.0
2017-Oct-14 08:30N 38°02' E 023°36'0 0.0
2017-Oct-14 08:00N 38°02' E 023°36'0 0.0
2017-Oct-14 07:30N 38°02' E 023°36'0 0.0
2017-Oct-14 07:00N 38°02' E 023°36'0 0.0
2017-Oct-14 06:30N 38°02' E 023°36'0 0.0
2017-Oct-14 06:00N 38°02' E 023°36'0 0.0
2017-Oct-14 05:30N 38°02' E 023°36'0 0.0
2017-Oct-14 05:00N 38°02' E 023°36'0 0.0
2017-Oct-14 04:30N 38°02' E 023°36'0 0.0
2017-Oct-14 04:00N 38°02' E 023°36'0 0.0
2017-Oct-14 03:30N 38°02' E 023°36'0 0.0
2017-Oct-14 03:00N 38°02' E 023°36'0 0.0
2017-Oct-14 02:30N 38°02' E 023°36'0 0.0
2017-Oct-14 02:00N 38°02' E 023°36'0 0.0
2017-Oct-14 01:30N 38°02' E 023°36'0 0.0
2017-Oct-14 01:00N 38°02' E 023°36'0 0.0
2017-Oct-14 00:30N 38°02' E 023°36'0 0.0
2017-Oct-14 00:00N 38°02' E 023°36'0 0.0
2017-Oct-13 23:30N 38°02' E 023°36'0 0.0
2017-Oct-13 23:00N 38°02' E 023°36'0 0.0
2017-Oct-13 22:30N 38°02' E 023°36'0 0.0
2017-Oct-13 22:00N 38°02' E 023°36'0 0.0
2017-Oct-13 21:30N 38°02' E 023°36'0 0.2
2017-Oct-13 21:00N 38°02' E 023°36'4 7.1
2017-Oct-13 20:30N 38°02' E 023°31'0 0.7
2017-Oct-13 20:00N 38°02' E 023°31'0 0.0
2017-Oct-13 19:30N 38°02' E 023°31'0 0.0
2017-Oct-13 19:00N 38°02' E 023°31'0 0.0
2017-Oct-13 18:30N 38°02' E 023°31'0 0.0
2017-Oct-13 18:00N 38°02' E 023°31'0 0.0
2017-Oct-13 17:30N 38°02' E 023°31'0 0.0
2017-Oct-13 17:00N 38°02' E 023°31'0 0.0
2017-Oct-13 16:30N 38°02' E 023°31'0 0.0
2017-Oct-13 16:00N 38°02' E 023°31'0 0.0
2017-Oct-13 15:30N 38°02' E 023°31'0 0.0
2017-Oct-13 15:00N 38°02' E 023°31'0 0.0
2017-Oct-13 14:30N 38°02' E 023°31'0 0.7
2017-Oct-13 14:00N 38°02' E 023°31'0 1.0
2017-Oct-13 13:30N 38°02' E 023°31'0 0.0
2017-Oct-13 13:00N 38°01' E 023°31'0 0.1
2017-Oct-13 12:30N 38°02' E 023°31'0 0.1
2017-Oct-13 12:00N 38°01' E 023°31'0 0.0
2017-Oct-13 11:30N 38°01' E 023°31'0 0.1
2017-Oct-13 11:00N 38°01' E 023°31'0 0.0
2017-Oct-13 10:30N 38°01' E 023°31'0 0.1
2017-Oct-13 10:00N 38°02' E 023°31'3 6.4
2017-Oct-13 09:30N 37°59' E 023°33'2 3.4
2017-Oct-13 09:00N 37°58' E 023°35'0 0.0
2017-Oct-13 08:30N 37°58' E 023°35'0 0.0
2017-Oct-13 08:00N 37°58' E 023°35'0 0.0
2017-Oct-13 07:30N 37°58' E 023°35'0 1.0
2017-Oct-13 07:00N 37°58' E 023°34'  
2017-Oct-09 14:15N 37°58' E 023°34'0 0.0
2017-Oct-09 14:01N 37°58' E 023°34'0 0.0
2017-Oct-09 13:31N 37°58' E 023°34'0 0.0
2017-Oct-09 13:01N 37°58' E 023°34'0 0.0
2017-Oct-09 12:30N 37°58' E 023°34'0 0.0
2017-Oct-09 12:01N 37°58' E 023°34'0 0.0
2017-Oct-09 11:31N 37°58' E 023°34'0 0.0
2017-Oct-09 11:01N 37°58' E 023°34'0 0.0
2017-Oct-09 10:31N 37°58' E 023°34'0 0.0
2017-Oct-09 10:01N 37°58' E 023°34'0 0.0
2017-Oct-09 09:31N 37°58' E 023°34'0 0.0
2017-Oct-09 09:01N 37°58' E 023°34'0 0.0
2017-Oct-09 08:31N 37°58' E 023°34'0 0.0
2017-Oct-09 08:01N 37°58' E 023°34'0 0.0
2017-Oct-09 07:31N 37°58' E 023°34'0 0.0
2017-Oct-09 07:01N 37°58' E 023°34'0 0.0
2017-Oct-09 06:31N 37°58' E 023°34'0 0.9
2017-Oct-09 06:01N 37°58' E 023°35'0 0.1
2017-Oct-09 05:31N 37°58' E 023°35'0 0.0
2017-Oct-09 05:01N 37°58' E 023°35'0 0.0
2017-Oct-07 13:34N 37°58' E 023°35'0 0.0
2017-Oct-07 13:30N 37°58' E 023°35'0 0.0
2017-Oct-07 13:00N 37°58' E 023°35'0 0.0
2017-Oct-07 12:30N 37°58' E 023°35'0 0.0
2017-Oct-07 12:00N 37°58' E 023°35'0 0.0
2017-Oct-07 11:30N 37°58' E 023°35'0 0.0
2017-Oct-07 11:00N 37°58' E 023°35'0 0.0
2017-Oct-07 10:30N 37°58' E 023°35'0 0.0
2017-Oct-07 10:00N 37°58' E 023°35'0 0.0
2017-Oct-07 09:30N 37°58' E 023°35'0 0.0
2017-Oct-07 09:00N 37°58' E 023°35'0 0.0
2017-Oct-07 08:30N 37°58' E 023°35'0 0.0
2017-Oct-07 08:00N 37°58' E 023°35'0 0.0
2017-Oct-07 07:30N 37°58' E 023°35'0 0.0
2017-Oct-07 07:00N 37°58' E 023°35'0 0.0
2017-Oct-07 06:30N 37°58' E 023°35'0 0.0
2017-Oct-07 06:00N 37°58' E 023°35'0 0.0
2017-Oct-07 05:30N 37°58' E 023°35'0 0.0
2017-Oct-07 05:00N 37°58' E 023°35'0 0.0
2017-Oct-07 04:30N 37°58' E 023°35'  
Track history (hours):
 
Tides and Currents Weather Stations Pressure Air Temp Water Temp Dewpoint Dewpoint Depression Visibility Wind Speed Wind Dir Waves Ship Positions

Adriana

Last reported at 2017-Oct-16 20:36 UTC. Time now 2017-Oct-17 01:08 UTC.
Position N 37°58' E 023°35'.

Length 89 m; draft 7.8 m.

Type: Ship. MMSI: 240666000.

Date/timePositionNaut miles runAvg speedWind from/ knotsBaromVisibWave heightAir tempDewpointWater temp
2017-Oct-16 20:36N 37°58' E 023°35'0 0.1
2017-Oct-16 20:30N 37°58' E 023°35'3 6.1
2017-Oct-16 20:01N 37°55' E 023°34'4 8.0
2017-Oct-16 19:30N 37°51' E 023°32'0 0.1
2017-Oct-16 19:00N 37°51' E 023°32'0 0.0
2017-Oct-16 18:30N 37°51' E 023°32'0 0.1
2017-Oct-16 18:01N 37°51' E 023°32'0 0.0
2017-Oct-16 17:30N 37°51' E 023°32'0 0.0
2017-Oct-16 17:00N 37°51' E 023°32'0 0.0
2017-Oct-16 16:31N 37°51' E 023°32'0 0.1
2017-Oct-16 16:01N 37°51' E 023°32'1 1.3
2017-Oct-16 15:31N 37°52' E 023°32'1 2.5
2017-Oct-16 15:00N 37°53' E 023°33'2 4.8
2017-Oct-16 14:31N 37°55' E 023°34'3 2.9
2017-Oct-16 13:31N 37°57' E 023°36'0 0.0
2017-Oct-16 13:00N 37°57' E 023°36'0 0.0
2017-Oct-16 12:31N 37°57' E 023°36'0 0.0
2017-Oct-16 12:01N 37°57' E 023°36'0 0.4
2017-Oct-16 11:30N 37°57' E 023°36'1 2.2
2017-Oct-16 11:00N 37°58' E 023°35'0 0.1
2017-Oct-16 10:30N 37°58' E 023°35'0 0.0
2017-Oct-16 10:00N 37°58' E 023°35'0 0.0
2017-Oct-16 09:31N 37°58' E 023°35'0 0.0
2017-Oct-15 13:54N 37°58' E 023°35'0 0.7
2017-Oct-15 13:30N 37°57' E 023°35'4 7.9
2017-Oct-15 13:00N 37°54' E 023°33'1 1.3
2017-Oct-15 12:30N 37°53' E 023°33'0 0.0
2017-Oct-15 12:00N 37°53' E 023°33'0 0.0
2017-Oct-15 11:30N 37°53' E 023°33'0 0.0
2017-Oct-15 11:00N 37°53' E 023°33'0 0.1
2017-Oct-15 10:30N 37°53' E 023°33'0 0.1
2017-Oct-15 10:00N 37°53' E 023°33'0 0.0
2017-Oct-15 09:30N 37°53' E 023°33'0 0.1
2017-Oct-15 09:00N 37°53' E 023°33'0 0.1
2017-Oct-15 08:30N 37°53' E 023°33'0 0.4
2017-Oct-15 08:00N 37°53' E 023°33'3 6.4
2017-Oct-15 07:30N 37°56' E 023°34'2 4.0
2017-Oct-15 07:00N 37°57' E 023°36'0 0.0
2017-Oct-15 06:30N 37°57' E 023°36'0 0.0
2017-Oct-15 06:00N 37°57' E 023°36'0 0.0
2017-Oct-15 05:30N 37°57' E 023°36'0 0.0
2017-Oct-15 05:00N 37°57' E 023°36'0 0.0
2017-Oct-15 04:30N 37°57' E 023°36'0 0.0
2017-Oct-15 04:00N 37°57' E 023°36'0 0.0
2017-Oct-15 03:30N 37°57' E 023°36'0 0.0
2017-Oct-15 03:00N 37°57' E 023°36'0 0.0
2017-Oct-15 02:30N 37°57' E 023°36'1 2.2
2017-Oct-15 02:00N 37°57' E 023°35'0 0.3
2017-Oct-15 01:30N 37°58' E 023°35'0 0.0
2017-Oct-14 10:47N 37°58' E 023°35'0 1.0
2017-Oct-14 10:30N 37°57' E 023°34'3 5.9
2017-Oct-14 10:00N 38°00' E 023°33'2 4.7
2017-Oct-14 09:30N 38°02' E 023°36'0 0.1
2017-Oct-14 09:00N 38°02' E 023°36'0 0.0
2017-Oct-14 08:30N 38°02' E 023°36'0 0.0
2017-Oct-14 08:00N 38°02' E 023°36'0 0.0
2017-Oct-14 07:30N 38°02' E 023°36'0 0.0
2017-Oct-14 07:00N 38°02' E 023°36'0 0.0
2017-Oct-14 06:30N 38°02' E 023°36'0 0.0
2017-Oct-14 06:00N 38°02' E 023°36'0 0.0
2017-Oct-14 05:30N 38°02' E 023°36'0 0.0
2017-Oct-14 05:00N 38°02' E 023°36'0 0.0
2017-Oct-14 04:30N 38°02' E 023°36'0 0.0
2017-Oct-14 04:00N 38°02' E 023°36'0 0.0
2017-Oct-14 03:30N 38°02' E 023°36'0 0.0
2017-Oct-14 03:00N 38°02' E 023°36'0 0.0
2017-Oct-14 02:30N 38°02' E 023°36'0 0.0
2017-Oct-14 02:00N 38°02' E 023°36'0 0.0
2017-Oct-14 01:30N 38°02' E 023°36'0 0.0
2017-Oct-14 01:00N 38°02' E 023°36'0 0.0
2017-Oct-14 00:30N 38°02' E 023°36'0 0.0
2017-Oct-14 00:00N 38°02' E 023°36'0 0.0
2017-Oct-13 23:30N 38°02' E 023°36'0 0.0
2017-Oct-13 23:00N 38°02' E 023°36'0 0.0
2017-Oct-13 22:30N 38°02' E 023°36'0 0.0
2017-Oct-13 22:00N 38°02' E 023°36'0 0.0
2017-Oct-13 21:30N 38°02' E 023°36'0 0.2
2017-Oct-13 21:00N 38°02' E 023°36'4 7.1
2017-Oct-13 20:30N 38°02' E 023°31'0 0.7
2017-Oct-13 20:00N 38°02' E 023°31'0 0.0
2017-Oct-13 19:30N 38°02' E 023°31'0 0.0
2017-Oct-13 19:00N 38°02' E 023°31'0 0.0
2017-Oct-13 18:30N 38°02' E 023°31'0 0.0
2017-Oct-13 18:00N 38°02' E 023°31'0 0.0
2017-Oct-13 17:30N 38°02' E 023°31'0 0.0
2017-Oct-13 17:00N 38°02' E 023°31'0 0.0
2017-Oct-13 16:30N 38°02' E 023°31'0 0.0
2017-Oct-13 16:00N 38°02' E 023°31'0 0.0
2017-Oct-13 15:30N 38°02' E 023°31'0 0.0
2017-Oct-13 15:00N 38°02' E 023°31'0 0.0
2017-Oct-13 14:30N 38°02' E 023°31'0 0.7
2017-Oct-13 14:00N 38°02' E 023°31'0 1.0
2017-Oct-13 13:30N 38°02' E 023°31'0 0.0
2017-Oct-13 13:00N 38°01' E 023°31'0 0.1
2017-Oct-13 12:30N 38°02' E 023°31'0 0.1
2017-Oct-13 12:00N 38°01' E 023°31'0 0.0
2017-Oct-13 11:30N 38°01' E 023°31'0 0.1
2017-Oct-13 11:00N 38°01' E 023°31'0 0.0
2017-Oct-13 10:30N 38°01' E 023°31'0 0.1
2017-Oct-13 10:00N 38°02' E 023°31'3 6.4
2017-Oct-13 09:30N 37°59' E 023°33'2 3.4
2017-Oct-13 09:00N 37°58' E 023°35'0 0.0
2017-Oct-13 08:30N 37°58' E 023°35'0 0.0
2017-Oct-13 08:00N 37°58' E 023°35'0 0.0
2017-Oct-13 07:30N 37°58' E 023°35'0 1.0
2017-Oct-13 07:00N 37°58' E 023°34'  
2017-Oct-09 14:15N 37°58' E 023°34'0 0.0
2017-Oct-09 14:01N 37°58' E 023°34'0 0.0
2017-Oct-09 13:31N 37°58' E 023°34'0 0.0
2017-Oct-09 13:01N 37°58' E 023°34'0 0.0
2017-Oct-09 12:30N 37°58' E 023°34'0 0.0
2017-Oct-09 12:01N 37°58' E 023°34'0 0.0
2017-Oct-09 11:31N 37°58' E 023°34'0 0.0
2017-Oct-09 11:01N 37°58' E 023°34'0 0.0
2017-Oct-09 10:31N 37°58' E 023°34'0 0.0
2017-Oct-09 10:01N 37°58' E 023°34'0 0.0
2017-Oct-09 09:31N 37°58' E 023°34'0 0.0
2017-Oct-09 09:01N 37°58' E 023°34'0 0.0
2017-Oct-09 08:31N 37°58' E 023°34'0 0.0
2017-Oct-09 08:01N 37°58' E 023°34'0 0.0
2017-Oct-09 07:31N 37°58' E 023°34'0 0.0
2017-Oct-09 07:01N 37°58' E 023°34'0 0.0
2017-Oct-09 06:31N 37°58' E 023°34'0 0.9
2017-Oct-09 06:01N 37°58' E 023°35'0 0.1
2017-Oct-09 05:31N 37°58' E 023°35'0 0.0
2017-Oct-09 05:01N 37°58' E 023°35'0 0.0
2017-Oct-07 13:34N 37°58' E 023°35'0 0.0
2017-Oct-07 13:30N 37°58' E 023°35'0 0.0
2017-Oct-07 13:00N 37°58' E 023°35'0 0.0
2017-Oct-07 12:30N 37°58' E 023°35'0 0.0
2017-Oct-07 12:00N 37°58' E 023°35'0 0.0
2017-Oct-07 11:30N 37°58' E 023°35'0 0.0
2017-Oct-07 11:00N 37°58' E 023°35'0 0.0
2017-Oct-07 10:30N 37°58' E 023°35'0 0.0
2017-Oct-07 10:00N 37°58' E 023°35'0 0.0
2017-Oct-07 09:30N 37°58' E 023°35'0 0.0
2017-Oct-07 09:00N 37°58' E 023°35'0 0.0
2017-Oct-07 08:30N 37°58' E 023°35'0 0.0
2017-Oct-07 08:00N 37°58' E 023°35'0 0.0
2017-Oct-07 07:30N 37°58' E 023°35'0 0.0
2017-Oct-07 07:00N 37°58' E 023°35'0 0.0
2017-Oct-07 06:30N 37°58' E 023°35'0 0.0
2017-Oct-07 06:00N 37°58' E 023°35'0 0.0
2017-Oct-07 05:30N 37°58' E 023°35'0 0.0
2017-Oct-07 05:00N 37°58' E 023°35'0 0.0
2017-Oct-07 04:30N 37°58' E 023°35'  

Dump ship's entire track history